This is the latest recevied weather packets stored in our database for station/object KC8BSD. If no packets are shown the sender has not sent any weather packets the latest 10 day(s).
| Time | Temp. | Humidity | Pressure | Rain* | Wind** | Luminosity | Snow |
|---|---|---|---|---|---|---|---|
| 1777825916 | 14.44° C | 45% | 1013.9 hPa | 0 mm | - | 333 W/m² | - |
| 1777825613 | 14.44° C | 47% | 1013.9 hPa | 0 mm | - | 359 W/m² | - |
| 1777825311 | 13.89° C | 50% | 1014 hPa | 0 mm | - | 431 W/m² | - |
| 1777825008 | 13.89° C | 50% | 1014 hPa | 0 mm | - | 395 W/m² | - |
| 1777824703 | 13.33° C | 47% | 1014.4 hPa | 0 mm | - | 348 W/m² | - |
| 1777824401 | 12.78° C | 51% | 1014 hPa | 0 mm | - | 314 W/m² | - |
| 1777824096 | 12.78° C | 49% | 1014.3 hPa | 0 mm | - | 268 W/m² | - |
| 1777823793 | 12.22° C | 49% | 1014.2 hPa | 0 mm | - | 232 W/m² | - |
| 1777823490 | 12.22° C | 49% | 1014.6 hPa | 0 mm | - | 221 W/m² | - |
| 1777823187 | 12.78° C | 48% | 1014.5 hPa | 0 mm | - | 195 W/m² | - |
| 1777822885 | 12.22° C | 48% | 1014.5 hPa | 0 mm | - | 194 W/m² | - |
| 1777822583 | 12.22° C | 48% | 1014.5 hPa | 0 mm | - | 173 W/m² | - |
| 1777822280 | 12.22° C | 48% | 1014.6 hPa | 0 mm | - | 148 W/m² | - |
| 1777821978 | 12.22° C | 50% | 1014.6 hPa | 0 mm | - | 133 W/m² | - |
| 1777821675 | 12.22° C | 49% | 1014.3 hPa | 0 mm | - | 134 W/m² | - |
| 1777821373 | 12.22° C | 47% | 1014.4 hPa | 0 mm | - | 140 W/m² | - |
| 1777821070 | 12.22° C | 46% | 1014.6 hPa | 0 mm | - | 104 W/m² | - |
| 1777820766 | 12.78° C | 46% | 1014.7 hPa | 0 mm | - | 88 W/m² | - |
| 1777820462 | 12.78° C | 44% | 1014.8 hPa | 0 mm | - | 102 W/m² | - |
| 1777820160 | 13.33° C | 44% | 1014.2 hPa | 0 mm | - | 144 W/m² | - |
| 1777819857 | 13.89° C | 44% | 1014.3 hPa | 0 mm | - | 173 W/m² | - |
| 1777819554 | 15.56° C | 43% | 1014.2 hPa | 0 mm | - | 196 W/m² | - |
| 1777819252 | 16.11° C | 40% | 1014.6 hPa | 0 mm | - | 632 W/m² | - |
| 1777818948 | 15° C | 42% | 1014.4 hPa | 0 mm | - | 557 W/m² | - |
| 1777818645 | 14.44° C | 45% | 1014.2 hPa | 0 mm | - | 489 W/m² | - |
* Rain latest hour (hover to see other rain measurements)
** Current wind speed in m/s (hover to see current wind gust speed)